createdAt,value
2023-11-09T00:01:19.747Z,20.73
2023-11-09T00:03:47.010Z,18.73
2023-11-09T00:06:14.475Z,16.63
2023-11-09T00:08:44.633Z,22.70
2023-11-09T00:11:12.065Z,18.73
2023-11-09T00:13:39.394Z,18.20
2023-11-09T00:16:12.822Z,16.30
2023-11-09T00:18:40.040Z,17.50
2023-11-09T00:21:07.679Z,17.05
2023-11-09T00:23:35.139Z,17.50
2023-11-09T00:26:05.360Z,16.45
2023-11-09T00:28:32.798Z,17.83
2023-11-09T00:31:00.088Z,16.07
2023-11-09T00:33:27.512Z,14.98
2023-11-09T00:35:57.736Z,16.00
2023-11-09T00:38:25.181Z,16.17
2023-11-09T00:40:53.055Z,19.13
2023-11-09T00:43:20.391Z,17.57
2023-11-09T00:45:47.805Z,20.85
2023-11-09T00:48:18.360Z,18.52
2023-11-09T00:55:42.285Z,16.30
2023-11-09T01:24:57.032Z,12.52
2023-11-09T01:31:59.248Z,15.90
2023-11-09T01:34:26.857Z,12.15
2023-11-09T01:36:55.268Z,13.93
2023-11-09T01:39:25.687Z,15.23
2023-11-09T01:41:53.402Z,13.25
2023-11-09T01:44:21.956Z,14.85
2023-11-09T01:46:54.714Z,13.20
2023-11-09T01:49:22.284Z,14.40
2023-11-09T01:51:50.507Z,15.95
2023-11-09T01:54:20.090Z,19.45
2023-11-09T01:56:48.202Z,9.75
2023-11-09T01:59:18.104Z,11.45
2023-11-09T02:01:46.777Z,13.70
2023-11-09T02:04:14.682Z,13.82
2023-11-09T02:06:43.080Z,19.02
2023-11-09T02:09:11.184Z,11.15
2023-11-09T02:11:39.480Z,10.80
2023-11-09T02:14:07.274Z,15.83
2023-11-09T02:16:35.492Z,10.27
2023-11-09T02:19:02.981Z,11.27
2023-11-09T02:21:31.320Z,12.98
2023-11-09T02:24:01.074Z,15.68
2023-11-09T02:26:28.713Z,11.30
2023-11-09T02:28:56.248Z,12.82
2023-11-09T02:31:23.542Z,13.07
2023-11-09T02:33:50.904Z,11.75
2023-11-09T02:36:18.646Z,11.63
2023-11-09T02:38:46.753Z,11.30
2023-11-09T02:41:14.052Z,12.80
2023-11-09T02:43:44.496Z,13.18
2023-11-09T02:46:13.049Z,13.30
2023-11-09T02:48:41.757Z,11.50
2023-11-09T02:51:09.608Z,12.27
2023-11-09T02:53:42.972Z,11.00
2023-11-09T02:56:12.891Z,13.65
2023-11-09T02:58:41.882Z,16.60
2023-11-09T03:01:09.291Z,11.80
2023-11-09T03:03:36.572Z,15.13
2023-11-09T03:06:04.374Z,11.30
2023-11-09T03:08:32.987Z,11.68
2023-11-09T03:11:00.464Z,13.43
2023-11-09T03:13:28.406Z,13.82
2023-11-09T03:15:55.657Z,22.63
2023-11-09T03:18:22.922Z,25.05
2023-11-09T03:20:51.197Z,26.38
2023-11-09T03:23:19.155Z,37.28
2023-11-09T03:25:46.487Z,27.05
2023-11-09T03:28:13.756Z,24.60
2023-11-09T03:30:41.031Z,31.92
2023-11-09T03:33:08.236Z,51.10
2023-11-09T03:35:35.481Z,41.45
2023-11-09T03:38:02.821Z,12.13
2023-11-09T03:40:30.391Z,28.13
2023-11-09T03:42:58.782Z,19.95
2023-11-09T03:45:26.089Z,41.28
2023-11-09T03:47:55.028Z,20.00
2023-11-09T03:50:22.428Z,11.88
2023-11-09T03:52:51.767Z,11.33
2023-11-09T03:55:19.382Z,16.60
2023-11-09T03:57:46.670Z,13.05
2023-11-09T04:00:14.290Z,11.27
2023-11-09T04:02:45.082Z,18.98
2023-11-09T04:05:14.611Z,10.80
2023-11-09T04:07:46.083Z,12.40
2023-11-09T04:10:15.757Z,16.83
2023-11-09T04:12:46.727Z,18.20
2023-11-09T04:15:13.945Z,13.18
2023-11-09T04:17:41.531Z,16.80
2023-11-09T04:20:09.621Z,18.02
2023-11-09T04:22:37.339Z,14.73
2023-11-09T04:25:05.637Z,9.50
2023-11-09T04:27:36.129Z,12.85
2023-11-09T04:30:04.752Z,11.50
2023-11-09T04:32:33.576Z,25.15
2023-11-09T04:35:00.942Z,16.77
2023-11-09T04:37:32.953Z,11.38
2023-11-09T04:40:00.483Z,19.02
2023-11-09T04:55:56.217Z,17.80
2023-11-09T04:58:42.858Z,14.05
2023-11-09T05:01:28.885Z,12.43
2023-11-09T05:04:25.053Z,19.48
2023-11-09T05:06:56.719Z,12.23
2023-11-09T05:09:29.165Z,9.73
2023-11-09T05:11:56.585Z,14.43
2023-11-09T05:14:24.341Z,14.40
2023-11-09T05:16:51.759Z,12.02
2023-11-09T05:19:19.254Z,14.15
2023-11-09T05:21:46.915Z,8.53
2023-11-09T05:24:18.373Z,8.02
2023-11-09T05:26:51.523Z,14.43
2023-11-09T05:29:20.087Z,16.98
2023-11-09T05:31:47.694Z,9.98
2023-11-09T05:34:14.981Z,8.73
2023-11-09T05:36:42.514Z,13.65
2023-11-09T05:39:11.782Z,18.08
2023-11-09T05:41:40.834Z,11.65
2023-11-09T05:44:09.233Z,10.88
2023-11-09T05:46:38.203Z,19.87
2023-11-09T05:49:06.351Z,16.48
2023-11-09T05:51:33.781Z,9.93
2023-11-09T05:54:01.262Z,10.35
2023-11-09T05:56:31.999Z,10.15
2023-11-09T05:58:59.390Z,8.37
2023-11-09T06:01:32.162Z,9.95
2023-11-09T06:04:04.496Z,11.88
2023-11-09T06:06:33.120Z,9.32
2023-11-09T06:09:00.961Z,13.40
2023-11-09T06:11:33.331Z,10.10
2023-11-09T06:14:05.993Z,10.10
2023-11-09T06:16:34.952Z,15.20
2023-11-09T06:19:05.234Z,12.75
2023-11-09T06:21:36.025Z,9.82
2023-11-09T06:24:03.904Z,12.60
2023-11-09T06:26:31.353Z,10.27
2023-11-09T06:28:58.708Z,9.70
2023-11-09T06:31:28.243Z,9.60
2023-11-09T06:33:57.142Z,10.75
2023-11-09T06:36:25.037Z,9.03
2023-11-09T06:38:53.149Z,7.88
2023-11-09T06:41:20.414Z,10.82
2023-11-09T06:43:47.665Z,15.18
2023-11-09T06:46:15.180Z,10.02
2023-11-09T06:48:49.130Z,7.07
2023-11-09T06:51:17.204Z,14.23
2023-11-09T06:53:44.977Z,10.63
2023-11-09T06:56:12.826Z,8.88
2023-11-09T06:58:40.307Z,13.02
2023-11-09T07:01:09.113Z,10.23
2023-11-09T07:03:36.742Z,9.63
2023-11-09T07:06:08.006Z,10.57
2023-11-09T07:08:36.056Z,10.98
2023-11-09T07:11:04.455Z,10.80
2023-11-09T07:13:33.082Z,7.90
2023-11-09T07:16:09.835Z,7.30
2023-11-09T07:18:38.922Z,8.63
2023-11-09T07:21:23.858Z,8.00
2023-11-09T07:24:00.893Z,9.95
2023-11-09T07:26:28.690Z,10.07
2023-11-09T07:28:56.193Z,10.00
2023-11-09T07:31:23.629Z,7.70
2023-11-09T07:33:51.542Z,9.80
2023-11-09T07:36:20.136Z,11.57
2023-11-09T07:38:48.009Z,11.20
2023-11-09T07:41:16.566Z,9.27
2023-11-09T07:43:54.666Z,10.73
2023-11-09T07:50:11.449Z,9.05
2023-11-09T07:52:39.312Z,11.13
2023-11-09T07:55:11.559Z,11.70
2023-11-09T07:57:40.683Z,12.30
2023-11-09T08:00:12.470Z,12.80
2023-11-09T08:02:40.532Z,11.73
2023-11-09T08:05:17.801Z,18.17
2023-11-09T08:07:48.166Z,15.48
2023-11-09T08:10:15.827Z,11.82
2023-11-09T08:12:43.685Z,17.25
2023-11-09T08:15:15.786Z,16.98
2023-11-09T08:17:44.289Z,15.17
2023-11-09T08:20:16.963Z,14.73
2023-11-09T08:22:46.930Z,12.40
2023-11-09T08:25:21.510Z,19.88
2023-11-09T08:27:49.326Z,20.02
2023-11-09T08:30:17.447Z,19.47
2023-11-09T08:32:49.900Z,19.38
2023-11-09T08:35:51.547Z,22.00
2023-11-09T08:41:39.089Z,15.90
2023-11-09T08:44:08.221Z,14.60
2023-11-09T08:46:37.274Z,16.40
2023-11-09T08:49:04.929Z,15.32
2023-11-09T08:51:35.789Z,11.90
2023-11-09T08:54:03.167Z,13.82
2023-11-09T08:56:31.448Z,16.87
2023-11-09T08:58:59.106Z,14.85
2023-11-09T09:01:30.139Z,13.45
2023-11-09T09:03:58.000Z,18.13
2023-11-09T09:06:25.586Z,16.38
2023-11-09T09:08:54.325Z,20.60
2023-11-09T09:11:21.901Z,14.40
2023-11-09T09:13:50.276Z,19.77
2023-11-09T09:16:20.262Z,17.42
2023-11-09T09:18:50.362Z,16.77
2023-11-09T09:21:19.358Z,22.67
2023-11-09T09:23:47.441Z,17.27
2023-11-09T09:26:17.514Z,20.15
2023-11-09T09:28:50.762Z,20.10
2023-11-09T09:31:20.747Z,20.65
2023-11-09T09:37:15.769Z,20.60
2023-11-09T09:39:44.246Z,20.42
2023-11-09T09:42:16.866Z,27.77
2023-11-09T09:44:46.834Z,17.80
2023-11-09T09:47:15.892Z,27.00
2023-11-09T09:49:47.943Z,20.35
2023-11-09T09:52:17.982Z,20.27
2023-11-09T09:54:48.730Z,22.02
2023-11-09T09:57:18.138Z,26.02
2023-11-09T09:59:47.025Z,14.07
2023-11-09T10:02:16.814Z,23.45
2023-11-09T10:04:46.322Z,29.52
2023-11-09T10:07:17.393Z,15.55
2023-11-09T10:09:48.255Z,16.63
2023-11-09T10:12:17.336Z,15.37
2023-11-09T10:14:44.863Z,16.27
2023-11-09T10:17:15.408Z,16.63
2023-11-09T10:19:48.945Z,16.48
2023-11-09T10:22:25.313Z,10.95
2023-11-09T10:24:55.480Z,14.07
2023-11-09T10:27:34.064Z,18.23
2023-11-09T10:33:54.440Z,19.38
2023-11-09T10:36:24.322Z,11.13
2023-11-09T10:38:57.173Z,8.63
2023-11-09T10:41:53.768Z,10.23
2023-11-09T10:44:24.100Z,16.40
2023-11-09T10:46:57.582Z,10.10
2023-11-09T10:49:36.926Z,10.63
2023-11-09T10:52:11.092Z,13.53
2023-11-09T10:54:41.733Z,9.57
2023-11-09T10:57:11.308Z,10.40
2023-11-09T10:59:43.539Z,12.60
2023-11-09T11:02:25.171Z,14.02
2023-11-09T11:04:57.520Z,9.43
2023-11-09T11:07:39.801Z,12.13
2023-11-09T11:10:15.970Z,12.25
2023-11-09T11:12:45.482Z,11.88
2023-11-09T11:15:15.902Z,11.30
2023-11-09T11:18:04.534Z,9.97
2023-11-09T11:20:44.069Z,8.75
2023-11-09T11:23:32.252Z,11.63
2023-11-09T11:29:40.838Z,10.15
2023-11-09T11:32:20.601Z,7.10
2023-11-09T11:34:59.160Z,11.35
2023-11-09T11:37:27.791Z,10.93
2023-11-09T11:39:55.469Z,8.48
2023-11-09T11:42:27.810Z,8.45
2023-11-09T11:44:59.256Z,9.43
2023-11-09T11:47:31.863Z,21.10
2023-11-09T11:50:02.121Z,8.40
2023-11-09T11:52:38.645Z,10.95
2023-11-09T11:55:11.942Z,10.20
2023-11-09T11:58:11.743Z,9.63
2023-11-09T12:00:41.976Z,10.40
2023-11-09T12:03:11.615Z,10.30
2023-11-09T12:05:42.119Z,8.30
2023-11-09T12:08:15.832Z,10.05
2023-11-09T12:10:44.398Z,8.47
2023-11-09T12:14:00.249Z,12.10
2023-11-09T12:16:28.551Z,12.55
2023-11-09T12:19:02.279Z,6.55
2023-11-09T12:21:36.066Z,11.30
2023-11-09T12:24:04.914Z,9.27
2023-11-09T12:26:35.714Z,7.30
2023-11-09T12:29:10.705Z,8.52
2023-11-09T12:31:39.896Z,7.25
2023-11-09T12:34:27.352Z,6.65
2023-11-09T12:36:59.928Z,13.70
2023-11-09T12:39:32.236Z,8.18
2023-11-09T12:42:36.261Z,10.82
2023-11-09T12:45:22.285Z,8.75
2023-11-09T12:50:38.270Z,7.88
2023-11-09T12:53:10.198Z,10.38
2023-11-09T12:55:38.766Z,7.00
2023-11-09T12:58:06.545Z,9.17
2023-11-09T13:00:35.381Z,9.27
2023-11-09T13:03:05.635Z,8.90
2023-11-09T13:08:27.130Z,8.00
2023-11-09T13:11:02.800Z,10.77
2023-11-09T13:13:36.206Z,9.25
2023-11-09T13:16:16.927Z,8.30
2023-11-09T13:19:12.851Z,9.10
2023-11-09T13:21:44.622Z,11.48
2023-11-09T13:24:14.169Z,8.50
2023-11-09T13:26:48.237Z,10.13
2023-11-09T13:29:24.939Z,10.88
2023-11-09T13:31:59.768Z,10.15
2023-11-09T13:34:44.832Z,7.70
2023-11-09T13:37:16.273Z,8.00
2023-11-09T13:39:52.561Z,9.07
2023-11-09T13:42:36.284Z,8.70
2023-11-09T13:48:29.709Z,8.40
2023-11-09T13:51:04.453Z,9.10
2023-11-09T13:53:37.641Z,7.65
2023-11-09T13:56:14.827Z,11.65
2023-11-09T13:58:49.229Z,8.60
2023-11-09T14:04:21.216Z,8.10
2023-11-09T14:06:51.244Z,7.63
2023-11-09T14:09:40.540Z,9.75
2023-11-09T14:12:11.381Z,8.35
2023-11-09T14:14:50.651Z,9.57
2023-11-09T14:17:18.903Z,8.03
2023-11-09T14:19:58.952Z,14.32
2023-11-09T14:23:14.147Z,8.30
2023-11-09T14:25:46.737Z,10.75
2023-11-09T14:28:16.456Z,10.02
2023-11-09T14:30:49.103Z,10.87
2023-11-09T14:33:25.547Z,10.23
2023-11-09T14:36:06.935Z,9.98
2023-11-09T14:38:34.612Z,8.18
2023-11-09T14:44:17.684Z,12.30
2023-11-09T14:47:44.907Z,9.50
2023-11-09T14:50:25.169Z,10.98
2023-11-09T14:52:55.869Z,9.05
2023-11-09T14:55:32.860Z,9.45
2023-11-09T15:01:33.824Z,8.27
2023-11-09T15:04:17.208Z,9.35
2023-11-09T15:06:48.573Z,10.57
2023-11-09T15:09:21.265Z,7.45
2023-11-09T15:11:52.512Z,8.10
2023-11-09T15:14:23.312Z,9.05
2023-11-09T15:17:14.386Z,6.68
2023-11-09T15:19:43.803Z,7.07
2023-11-09T15:22:21.438Z,7.45
2023-11-09T15:24:50.033Z,9.97
2023-11-09T15:27:29.681Z,6.82
2023-11-09T15:30:40.995Z,8.48
2023-11-09T15:33:15.989Z,6.55
2023-11-09T15:35:52.867Z,9.00
2023-11-09T15:38:25.873Z,8.70
2023-11-09T15:41:17.360Z,7.43
2023-11-09T15:43:49.709Z,6.13
2023-11-09T15:46:20.628Z,7.20
2023-11-09T15:48:52.600Z,7.97
2023-11-09T15:51:36.851Z,10.57
2023-11-09T15:54:09.736Z,5.55
2023-11-09T15:56:47.632Z,6.53
2023-11-09T15:59:15.206Z,6.10
2023-11-09T16:01:45.237Z,7.60
2023-11-09T16:04:17.291Z,8.77
2023-11-09T16:06:46.297Z,8.18
2023-11-09T16:09:29.480Z,9.73
2023-11-09T16:12:04.212Z,9.98
2023-11-09T16:14:41.897Z,7.95
2023-11-09T16:17:13.973Z,8.93
2023-11-09T16:19:43.111Z,11.05
2023-11-09T16:44:16.224Z,8.43
2023-11-09T16:51:15.792Z,5.60
2023-11-09T16:54:08.257Z,8.73
2023-11-09T16:57:03.807Z,7.63
2023-11-09T16:59:34.605Z,9.63
2023-11-09T17:02:12.363Z,6.35
2023-11-09T17:04:43.935Z,8.10
2023-11-09T17:07:13.297Z,6.25
2023-11-09T17:09:44.701Z,6.93
2023-11-09T17:12:22.120Z,6.32
2023-11-09T17:14:51.189Z,7.88
2023-11-09T17:17:23.992Z,8.33
2023-11-09T17:19:52.594Z,8.95
2023-11-09T17:22:20.972Z,6.50
2023-11-09T17:24:50.503Z,7.32
2023-11-09T17:27:22.158Z,6.93
2023-11-09T17:29:51.748Z,7.83
2023-11-09T17:32:20.254Z,9.88
2023-11-09T17:34:51.276Z,9.10
2023-11-09T17:37:29.621Z,7.50
2023-11-09T17:40:02.598Z,8.90
2023-11-09T17:42:49.029Z,9.03
2023-11-09T17:45:19.690Z,7.63
2023-11-09T17:51:30.451Z,8.05
2023-11-09T17:54:03.619Z,9.27
2023-11-09T17:56:31.724Z,9.10
2023-11-09T17:59:04.884Z,8.70
2023-11-09T18:01:43.767Z,10.13
2023-11-09T18:04:12.599Z,12.45
2023-11-09T18:06:40.731Z,9.23
2023-11-09T18:09:13.886Z,8.97
2023-11-09T18:12:17.985Z,9.50
2023-11-09T18:19:09.919Z,8.70
2023-11-09T18:29:19.076Z,10.77
2023-11-09T18:31:59.811Z,12.05
2023-11-09T18:34:48.372Z,13.23
2023-11-09T18:37:26.948Z,12.30
2023-11-09T18:39:58.418Z,11.40
2023-11-09T18:42:26.136Z,10.77
2023-11-09T18:44:54.509Z,9.25
2023-11-09T18:47:35.487Z,14.10
2023-11-09T18:53:11.052Z,11.00
2023-11-09T18:55:43.313Z,9.63
2023-11-09T18:58:10.843Z,10.70
2023-11-09T19:00:38.254Z,10.05
2023-11-09T19:05:55.532Z,10.03
2023-11-09T19:09:32.750Z,10.57
2023-11-09T19:19:35.339Z,9.18
2023-11-09T19:24:46.556Z,9.50
2023-11-09T19:27:14.328Z,9.27
2023-11-09T19:29:44.924Z,8.90
2023-11-09T19:32:21.829Z,10.93
2023-11-09T19:34:56.116Z,9.80
2023-11-09T19:48:11.537Z,10.73
2023-11-09T19:51:29.744Z,8.77
2023-11-09T19:53:59.550Z,8.50
2023-11-09T19:56:51.901Z,9.20
2023-11-09T20:04:03.373Z,10.60
2023-11-09T20:06:32.067Z,10.73
2023-11-09T20:25:16.701Z,8.57
2023-11-09T20:31:06.002Z,8.50
2023-11-09T20:37:54.806Z,10.73
2023-11-09T20:40:25.398Z,11.93
2023-11-09T20:43:05.516Z,6.95
2023-11-09T20:45:36.890Z,7.72
2023-11-09T20:48:08.000Z,12.48
2023-11-09T20:50:52.290Z,8.25
2023-11-09T20:53:26.373Z,7.23
2023-11-09T20:55:54.058Z,9.35
2023-11-09T20:58:24.081Z,12.82
2023-11-09T21:01:08.727Z,7.63
2023-11-09T21:04:06.773Z,11.77
2023-11-09T21:06:57.394Z,7.60
2023-11-09T21:09:30.339Z,8.70
2023-11-09T21:11:58.772Z,8.88
2023-11-09T21:14:34.750Z,10.20
2023-11-09T21:17:02.368Z,10.43
2023-11-09T21:19:33.605Z,8.73
2023-11-09T21:22:02.277Z,11.27
2023-11-09T21:24:30.029Z,8.63
2023-11-09T21:26:59.301Z,7.03
2023-11-09T21:29:26.931Z,7.10
2023-11-09T21:31:54.723Z,9.07
2023-11-09T21:34:23.614Z,9.13
2023-11-09T21:36:57.241Z,8.15
2023-11-09T21:39:26.953Z,7.00
2023-11-09T21:41:54.697Z,11.38
2023-11-09T21:44:25.932Z,8.07
2023-11-09T21:46:53.584Z,9.63
2023-11-09T21:49:21.055Z,7.93
2023-11-09T21:51:53.022Z,8.77
2023-11-09T21:54:24.306Z,9.05
2023-11-09T21:57:02.074Z,7.93
2023-11-09T21:59:36.353Z,8.50
2023-11-09T22:02:08.348Z,9.13
2023-11-09T22:04:39.812Z,7.88
2023-11-09T22:07:07.991Z,8.40
2023-11-09T22:09:35.869Z,8.63
2023-11-09T22:12:04.728Z,11.35
2023-11-09T22:14:32.518Z,5.85
2023-11-09T22:17:05.637Z,8.07
2023-11-09T22:19:33.297Z,8.85
2023-11-09T22:22:01.122Z,9.20
2023-11-09T22:24:30.289Z,8.85
2023-11-09T22:26:57.761Z,10.82
2023-11-09T22:29:25.154Z,10.50
2023-11-09T22:31:56.054Z,7.38
2023-11-09T22:34:31.200Z,6.93
2023-11-09T22:36:58.939Z,9.25
2023-11-09T22:39:29.468Z,12.00
2023-11-09T22:41:57.072Z,7.32
2023-11-09T22:44:24.740Z,8.52
2023-11-09T22:46:52.193Z,8.10
2023-11-09T22:49:21.777Z,6.88
2023-11-09T22:51:49.566Z,7.75
2023-11-09T22:54:17.168Z,10.00
2023-11-09T22:56:44.862Z,6.97
2023-11-09T22:59:12.514Z,7.13
2023-11-09T23:01:43.239Z,7.85
2023-11-09T23:04:11.320Z,10.52
2023-11-09T23:06:45.323Z,9.07
2023-11-09T23:09:13.908Z,8.02
2023-11-09T23:11:41.811Z,6.67
2023-11-09T23:14:11.623Z,8.63
2023-11-09T23:16:39.264Z,8.95
2023-11-09T23:19:07.083Z,6.57
2023-11-09T23:21:40.797Z,6.82
2023-11-09T23:24:09.448Z,8.57
2023-11-09T23:26:36.920Z,8.63
2023-11-09T23:29:05.357Z,7.07
2023-11-09T23:31:32.843Z,7.38
2023-11-09T23:34:02.091Z,7.78
2023-11-09T23:36:30.541Z,6.03
2023-11-09T23:38:58.074Z,7.82
2023-11-09T23:41:25.613Z,7.80
2023-11-09T23:43:53.017Z,8.70
2023-11-09T23:46:20.679Z,8.30
2023-11-09T23:48:48.733Z,6.30
2023-11-09T23:51:20.986Z,6.78
2023-11-09T23:53:48.404Z,6.32
2023-11-09T23:56:16.006Z,8.05
2023-11-09T23:58:44.099Z,6.97
